CYXH

Medicine Hat Airport

Medicine Hat, Alberta, Canada
METAR CYXH 152000Z 24008KT 30SM FEW290 27/05 A3008 RMK CI2 SLP184 DENSITY ALT 4100FT
Observed Flight Rules
Jul-15 @ 20:00 UTC (an hour ago) Visual Flight Rules
Wind Visibility Clouds
240° at 8 knots 30 miles
  • Few at 29,000' AGL
Temperatures Readings
Current 27°C / 81°F
Dewpoint 5°C / 41°F
Humidity 24%
Altimeter 30.08" Hg
Pressure 1018.4 hPa
Elevation 716
METAR CYXH 152000Z 24008KT 30SM FEW290 27/05 A3008 RMK CI2 SLP184 DENSITY ALT 4100FT
Observed Flight Rules
Jul-15 @ 20:00 UTC
(an hour ago)
VFR
Wind Visibility
240° at 8 knots 30 miles
Clouds
  • Few at 29,000' AGL
Temperature Dewpoint
27°C / 81°F 5°C / 41°F
Humidity Altimeter Pressure
24% 30.08" Hg 1018.4 hPa